Terminal Aerodrome Forecast
Issued by NWS

Home | Current Version | Previous Version | Graphics & Text | Print | Product List | Glossary On
Versions: 1 2 3 4 5 6 7 8 9 10 11 12 13
000
FTUS42 KMHX 281130
TAFOAJ
TAF
KOAJ 281130Z 2812/2912 22004KT P6SM BKN250
     FM282000 24006KT P6SM VCTS BKN040CB
     FM290200 23004KT P6SM SCT040
      AMD LTD TO CLD VIS AND WIND=

USA.gov is the U.S. government's official web portal to all federal, state and local government web resources and services.